createdAt,value
2022-07-26T00:00:04.631Z,99387.63
2022-07-26T00:04:56.259Z,99386.56
2022-07-26T00:09:48.499Z,99394.16
2022-07-26T00:14:40.360Z,99403.00
2022-07-26T00:19:32.761Z,99413.91
2022-07-26T00:24:24.386Z,99410.00
2022-07-26T00:29:16.010Z,99422.34
2022-07-26T00:34:07.611Z,99428.28
2022-07-26T00:38:59.226Z,99437.13
2022-07-26T00:43:56.037Z,99445.69
2022-07-26T00:48:47.725Z,99453.47
2022-07-26T00:53:39.435Z,99453.34
2022-07-26T00:58:31.103Z,99457.91
2022-07-26T01:03:22.719Z,99470.44
2022-07-26T01:08:21.067Z,99459.03
2022-07-26T01:13:13.313Z,99463.75
2022-07-26T01:18:05.005Z,99483.22
2022-07-26T01:22:56.712Z,99482.22
2022-07-26T01:27:48.363Z,99482.47
2022-07-26T01:32:40.236Z,99480.06
2022-07-26T01:37:31.965Z,99481.97
2022-07-26T01:42:23.631Z,99488.50
2022-07-26T01:47:15.350Z,99490.66
2022-07-26T01:52:07.024Z,99480.00
2022-07-26T01:56:59.000Z,99495.25
2022-07-26T02:01:50.712Z,99493.94
2022-07-26T02:06:42.429Z,99499.47
2022-07-26T02:11:36.034Z,99498.66
2022-07-26T02:16:27.835Z,99490.66
2022-07-26T02:21:19.554Z,99498.47
2022-07-26T02:26:11.338Z,99498.22
2022-07-26T02:31:03.084Z,99493.03
2022-07-26T02:35:54.811Z,99500.13
2022-07-26T02:41:01.618Z,99505.25
2022-07-26T02:46:01.026Z,99497.91
2022-07-26T02:50:53.618Z,99502.16
2022-07-26T02:55:45.217Z,99508.09
2022-07-26T03:00:36.841Z,99508.34
2022-07-26T03:05:28.628Z,99513.81
2022-07-26T03:10:20.464Z,99510.75
2022-07-26T03:15:12.694Z,99523.06
2022-07-26T03:20:05.208Z,99520.59
2022-07-26T03:24:56.937Z,99522.72
2022-07-26T03:29:48.571Z,99535.19
2022-07-26T03:34:40.211Z,99530.78
2022-07-26T03:39:31.908Z,99547.72
2022-07-26T03:44:23.561Z,99536.25
2022-07-26T03:49:17.135Z,99545.13
2022-07-26T03:54:09.561Z,99539.22
2022-07-26T03:59:08.247Z,99547.97
2022-07-26T04:04:00.076Z,99547.38
2022-07-26T04:08:53.618Z,99559.34
2022-07-26T04:13:45.240Z,99548.94
2022-07-26T04:18:38.671Z,99553.78
2022-07-26T04:23:30.297Z,99554.19
2022-07-26T04:28:22.042Z,99551.94
2022-07-26T04:33:13.703Z,99554.41
2022-07-26T04:38:05.388Z,99562.91
2022-07-26T04:42:57.017Z,99574.91
2022-07-26T04:47:50.790Z,99580.09
2022-07-26T04:52:42.607Z,99588.53
2022-07-26T04:57:34.926Z,99578.09
2022-07-26T05:02:28.065Z,99589.81
2022-07-26T05:07:19.799Z,99586.28
2022-07-26T05:12:11.507Z,99592.53
2022-07-26T05:17:08.696Z,99597.16
2022-07-26T05:22:01.982Z,99600.13
2022-07-26T05:26:58.488Z,99601.53
2022-07-26T05:31:50.323Z,99606.50
2022-07-26T05:36:41.983Z,99603.09
2022-07-26T05:41:33.598Z,99612.44
2022-07-26T05:46:25.413Z,99608.44
2022-07-26T05:51:17.130Z,99620.25
2022-07-26T05:56:09.116Z,99607.47
2022-07-26T06:01:00.792Z,99612.44
2022-07-26T06:05:55.604Z,99615.84
2022-07-26T06:10:51.040Z,99619.75
2022-07-26T06:15:43.169Z,99623.44
2022-07-26T06:20:38.018Z,99633.63
2022-07-26T06:25:29.666Z,99641.06
2022-07-26T06:30:21.293Z,99632.66
2022-07-26T06:35:14.560Z,99643.75
2022-07-26T06:40:08.357Z,99644.19
2022-07-26T06:45:01.019Z,99640.03
2022-07-26T06:49:52.777Z,99642.59
2022-07-26T06:54:44.678Z,99648.16
2022-07-26T06:59:36.354Z,99657.00
2022-07-26T07:04:29.811Z,99652.94
2022-07-26T07:09:21.516Z,99664.81
2022-07-26T07:14:13.114Z,99665.47
2022-07-26T07:19:04.717Z,99668.69
2022-07-26T07:23:56.354Z,99657.13
2022-07-26T07:28:48.652Z,99672.09
2022-07-26T07:33:52.478Z,99683.41
2022-07-26T07:38:45.479Z,99679.78
2022-07-26T07:43:37.617Z,99676.50
2022-07-26T07:48:29.373Z,99673.91
2022-07-26T07:53:21.067Z,99675.66
2022-07-26T07:58:13.278Z,99686.75
2022-07-26T08:03:06.193Z,99697.00
2022-07-26T08:07:58.210Z,99696.00
2022-07-26T08:12:51.295Z,99698.97
2022-07-26T08:17:43.331Z,99704.22
2022-07-26T08:22:36.268Z,99694.91
2022-07-26T08:27:27.977Z,99696.28
2022-07-26T08:32:19.597Z,99705.81
2022-07-26T08:37:18.681Z,99703.91
2022-07-26T08:42:22.808Z,99708.28
2022-07-26T08:47:16.504Z,99717.97
2022-07-26T08:52:27.348Z,99725.75
2022-07-26T08:57:19.094Z,99727.16
2022-07-26T09:02:13.158Z,99727.19
2022-07-26T09:07:10.043Z,99721.44
2022-07-26T09:12:32.129Z,99723.41
2022-07-26T09:17:25.693Z,99730.81
2022-07-26T09:22:17.394Z,99746.59
2022-07-26T09:27:12.914Z,99740.28
2022-07-26T09:32:22.551Z,99737.56
2022-07-26T09:37:14.292Z,99750.75
2022-07-26T09:47:21.682Z,99752.38
2022-07-26T09:52:18.339Z,99749.91
2022-07-26T09:57:10.840Z,99767.81
2022-07-26T10:02:02.658Z,99760.31
2022-07-26T10:06:55.874Z,99756.41
2022-07-26T10:11:59.934Z,99762.13
2022-07-26T10:16:51.910Z,99755.22
2022-07-26T10:21:43.777Z,99766.47
2022-07-26T10:26:37.552Z,99771.91
2022-07-26T10:31:30.517Z,99766.06
2022-07-26T10:36:28.799Z,99765.19
2022-07-26T10:41:32.016Z,99773.25
2022-07-26T10:46:27.030Z,99764.25
2022-07-26T10:51:32.929Z,99780.34
2022-07-26T10:56:24.561Z,99772.19
2022-07-26T11:01:16.597Z,99771.66
2022-07-26T11:06:19.047Z,99780.44
2022-07-26T11:11:10.907Z,99786.50
2022-07-26T11:16:05.700Z,99787.88
2022-07-26T11:21:08.853Z,99785.69
2022-07-26T11:26:03.348Z,99787.59
2022-07-26T11:31:01.551Z,99782.59
2022-07-26T11:35:55.559Z,99787.47
2022-07-26T11:40:48.628Z,99787.88
2022-07-26T11:45:42.068Z,99798.19
2022-07-26T11:50:33.854Z,99790.56
2022-07-26T11:55:30.304Z,99786.53
2022-07-26T12:00:23.689Z,99789.66
2022-07-26T12:05:22.196Z,99778.53
2022-07-26T12:10:16.709Z,99776.72
2022-07-26T12:15:08.522Z,99779.25
2022-07-26T12:20:15.203Z,99777.94
2022-07-26T12:25:09.261Z,99777.22
2022-07-26T12:30:01.039Z,99783.00
2022-07-26T12:35:09.319Z,99774.28
2022-07-26T12:40:12.879Z,99796.66
2022-07-26T12:45:08.567Z,99789.84
2022-07-26T12:50:01.397Z,99776.22
2022-07-26T12:54:53.578Z,99776.66
2022-07-26T12:59:45.876Z,99782.50
2022-07-26T13:04:38.155Z,99778.69
2022-07-26T13:09:30.024Z,99774.47
2022-07-26T13:14:21.800Z,99771.97
2022-07-26T13:19:13.572Z,99780.50
2022-07-26T13:24:07.459Z,99770.25
2022-07-26T13:29:01.089Z,99764.22
2022-07-26T13:33:52.751Z,99770.66
2022-07-26T13:38:44.461Z,99771.84
2022-07-26T13:43:36.660Z,99778.00
2022-07-26T13:48:28.477Z,99781.31
2022-07-26T13:53:20.583Z,99785.63
2022-07-26T13:58:12.229Z,99794.94
2022-07-26T14:03:04.175Z,99796.25
2022-07-26T14:07:57.557Z,99788.53
2022-07-26T14:12:49.969Z,99804.03
2022-07-26T14:17:41.667Z,99791.94
2022-07-26T14:22:33.360Z,99799.81
2022-07-26T14:27:25.017Z,99798.28
2022-07-26T14:32:21.320Z,99800.16
2022-07-26T14:37:42.634Z,99797.56
2022-07-26T14:42:25.219Z,99796.47
2022-07-26T14:47:16.926Z,99804.09
2022-07-26T14:52:08.653Z,99803.50
2022-07-26T14:57:00.325Z,99806.84
2022-07-26T15:01:52.045Z,99802.53
2022-07-26T15:06:43.772Z,99805.03
2022-07-26T15:11:35.550Z,99807.94
2022-07-26T15:16:27.365Z,99796.19
2022-07-26T15:21:19.315Z,99795.31
2022-07-26T15:26:11.044Z,99802.66
2022-07-26T15:31:02.657Z,99794.09
2022-07-26T15:35:55.529Z,99795.34
2022-07-26T15:40:47.440Z,99792.38
2022-07-26T15:45:41.403Z,99795.78
2022-07-26T15:50:33.531Z,99790.66
2022-07-26T15:55:26.646Z,99793.19
2022-07-26T16:00:18.735Z,99787.88
2022-07-26T16:05:11.015Z,99786.72
2022-07-26T16:10:02.713Z,99782.25
2022-07-26T16:14:54.359Z,99785.88
2022-07-26T16:19:46.044Z,99778.09
2022-07-26T16:24:37.703Z,99776.81
2022-07-26T16:29:29.496Z,99779.59
2022-07-26T16:34:21.173Z,99773.59
2022-07-26T16:39:13.881Z,99775.28
2022-07-26T16:44:05.999Z,99783.28
2022-07-26T16:48:57.878Z,99784.72
2022-07-26T16:53:51.481Z,99779.22
2022-07-26T16:58:43.286Z,99777.59
2022-07-26T17:03:35.193Z,99780.69
2022-07-26T17:08:27.283Z,99781.22
2022-07-26T17:13:18.979Z,99779.88
2022-07-26T17:18:10.679Z,99779.63
2022-07-26T17:23:02.335Z,99768.34
2022-07-26T17:27:54.169Z,99764.22
2022-07-26T17:32:46.221Z,99775.78
2022-07-26T17:37:38.015Z,99783.22
2022-07-26T17:42:31.963Z,99778.81
2022-07-26T17:47:28.768Z,99779.09
2022-07-26T17:52:21.478Z,99777.16
2022-07-26T17:57:13.116Z,99772.75
2022-07-26T18:02:04.977Z,99771.38
2022-07-26T18:06:56.685Z,99773.56
2022-07-26T18:11:48.670Z,99777.97
2022-07-26T18:16:41.571Z,99772.66
2022-07-26T18:21:33.276Z,99772.91
2022-07-26T18:26:25.050Z,99777.00
2022-07-26T18:31:16.797Z,99781.91
2022-07-26T18:36:08.505Z,99777.94
2022-07-26T18:41:00.150Z,99781.75
2022-07-26T18:45:51.898Z,99785.81
2022-07-26T18:50:44.034Z,99789.63
2022-07-26T18:55:35.742Z,99781.91
2022-07-26T19:00:29.642Z,99788.63
2022-07-26T19:05:22.910Z,99787.47
2022-07-26T19:10:15.119Z,99797.50
2022-07-26T19:15:07.601Z,99799.84
2022-07-26T19:20:00.809Z,99803.81
2022-07-26T19:24:52.764Z,99800.75
2022-07-26T19:29:44.994Z,99808.31
2022-07-26T19:34:36.725Z,99811.16
2022-07-26T19:39:28.409Z,99816.69
2022-07-26T19:44:20.323Z,99818.16
2022-07-26T19:49:12.792Z,99820.19
2022-07-26T19:54:05.726Z,99828.13
2022-07-26T19:58:58.159Z,99830.72
2022-07-26T20:03:50.187Z,99817.72
2022-07-26T20:08:42.179Z,99821.38
2022-07-26T20:13:33.875Z,99823.13
2022-07-26T20:18:28.366Z,99842.34
2022-07-26T20:23:20.482Z,99833.22
2022-07-26T20:28:12.154Z,99838.88
2022-07-26T20:33:04.042Z,99850.19
2022-07-26T20:37:56.469Z,99848.13
2022-07-26T20:42:50.079Z,99849.59
2022-07-26T20:47:43.210Z,99853.56
2022-07-26T20:52:35.112Z,99856.59
2022-07-26T20:57:26.738Z,99863.50
2022-07-26T21:02:18.491Z,99875.81
2022-07-26T21:07:10.255Z,99874.75
2022-07-26T21:12:01.972Z,99873.56
2022-07-26T21:16:53.800Z,99873.72
2022-07-26T21:21:45.533Z,99872.16
2022-07-26T21:26:37.393Z,99877.53
2022-07-26T21:31:29.128Z,99892.47
2022-07-26T21:36:20.756Z,99895.56
2022-07-26T21:41:13.606Z,99888.56
2022-07-26T21:46:10.383Z,99885.72
2022-07-26T21:51:04.274Z,99887.28
2022-07-26T21:55:57.142Z,99881.09
2022-07-26T22:00:48.989Z,99885.97
2022-07-26T22:05:43.957Z,99886.91
2022-07-26T22:10:42.344Z,99888.44
2022-07-26T22:15:36.550Z,99892.72
2022-07-26T22:20:30.994Z,99891.41
2022-07-26T22:25:22.688Z,99899.94
2022-07-26T22:30:14.560Z,99888.75
2022-07-26T22:35:06.527Z,99885.91
2022-07-26T22:39:58.210Z,99894.78
2022-07-26T22:44:49.860Z,99895.25
2022-07-26T22:49:41.546Z,99892.78
2022-07-26T22:54:33.239Z,99895.38
2022-07-26T22:59:25.435Z,99894.97
2022-07-26T23:04:17.253Z,99905.53
2022-07-26T23:09:09.363Z,99902.69
2022-07-26T23:14:01.254Z,99905.25
2022-07-26T23:18:52.923Z,99898.81
2022-07-26T23:23:44.570Z,99895.56
2022-07-26T23:28:38.462Z,99891.75
2022-07-26T23:33:53.076Z,99896.66
2022-07-26T23:38:42.336Z,99894.50
2022-07-26T23:43:33.958Z,99895.63
2022-07-26T23:48:25.763Z,99900.94
2022-07-26T23:53:17.403Z,99885.13
2022-07-26T23:58:11.925Z,99889.84
